Time;durP1;ratioP1;P1;durP2;ratioP2;P2;SDS_P1;SDS_P2;PMS_P1;PMS_P2;Temp;Humidity;BMP_temperature;BMP_pressure;BME280_temperature;BME280_humidity;BME280_pressure;Samples;Min_cycle;Max_cycle;Signal;HPM_P1;HPM_P2
2021/07/26 00:00:35;;;;;;;11.73;4.45;;;;;17.30;100283.00;;;;10422018;28;20194;-81
2021/07/26 00:05:37;;;;;;;7.88;4.47;;;;;17.20;100280.00;;;;10421391;28;20556;-81
2021/07/26 00:10:39;;;;;;;8.00;4.85;;;;;17.10;100289.00;;;;10470837;28;20217;-81
2021/07/26 00:15:41;;;;;;;10.38;5.43;;;;;17.00;100295.00;;;;10477709;28;20208;-81
2021/07/26 00:20:43;;;;;;;7.50;5.27;;;;;17.00;100300.00;;;;10478224;28;20190;-81
2021/07/26 00:25:45;;;;;;;9.65;6.20;;;;;17.00;100311.00;;;;10480359;28;20193;-81
2021/07/26 00:30:47;;;;;;;14.82;5.60;;;;;17.10;100297.00;;;;10460875;28;20204;-80
2021/07/26 00:35:48;;;;;;;10.68;5.85;;;;;17.10;100292.00;;;;10443354;28;20251;-81
2021/07/26 00:40:51;;;;;;;10.48;5.32;;;;;17.20;100297.00;;;;10442405;28;20208;-80
2021/07/26 00:45:53;;;;;;;8.45;5.72;;;;;17.30;100292.00;;;;10460568;28;20208;-80
2021/07/26 00:50:55;;;;;;;9.35;5.80;;;;;17.30;100281.00;;;;10478090;28;20201;-81
2021/07/26 00:55:57;;;;;;;8.70;6.72;;;;;17.40;100301.00;;;;10419659;28;20292;-81
2021/07/26 01:01:00;;;;;;;10.32;6.47;;;;;17.40;100306.00;;;;10437823;28;20193;-81
2021/07/26 01:06:03;;;;;;;9.10;6.40;;;;;17.50;100295.00;;;;10404933;28;20649;-81
2021/07/26 01:11:05;;;;;;;9.13;6.95;;;;;17.50;100293.00;;;;10460846;28;20792;-81
2021/07/26 01:16:07;;;;;;;10.38;5.00;;;;;17.40;100293.00;;;;10454466;28;20202;-80
2021/07/26 01:21:14;;;;;;;6.90;4.80;;;;;17.40;100289.00;;;;10453621;28;20185;-81
2021/07/26 01:26:22;;;;;;;6.25;4.65;;;;;17.30;100285.00;;;;10419379;28;20224;-81
2021/07/26 01:31:25;;;;;;;10.55;4.88;;;;;17.20;100288.00;;;;10420016;28;20278;-81
2021/07/26 01:36:27;;;;;;;10.55;5.18;;;;;17.20;100287.00;;;;10403620;28;20248;-81
2021/07/26 01:41:35;;;;;;;10.48;5.13;;;;;17.10;100292.00;;;;10425659;28;20576;-81
2021/07/26 01:46:45;;;;;;;6.45;4.85;;;;;17.00;100290.00;;;;10404203;28;20205;-81
2021/07/26 01:51:48;;;;;;;7.65;4.97;;;;;17.00;100286.00;;;;10451175;28;20206;-81
2021/07/26 01:56:50;;;;;;;8.55;4.97;;;;;16.90;100299.00;;;;10436552;28;20199;-81
2021/07/26 02:01:52;;;;;;;9.82;5.45;;;;;16.90;100300.00;;;;10435396;28;20179;-80
2021/07/26 02:06:54;;;;;;;5.88;4.72;;;;;16.80;100296.00;;;;10469870;28;20273;-81
2021/07/26 02:11:56;;;;;;;8.55;5.13;;;;;16.80;100298.00;;;;10443104;28;20202;-81
2021/07/26 02:16:58;;;;;;;7.70;5.28;;;;;16.80;100300.00;;;;10435141;28;20202;-81
2021/07/26 02:22:00;;;;;;;7.30;4.90;;;;;16.70;100304.00;;;;10450721;28;20190;-81
2021/07/26 02:27:04;;;;;;;9.43;5.95;;;;;16.70;100308.00;;;;10412784;28;20249;-82
2021/07/26 02:32:06;;;;;;;11.35;5.70;;;;;16.60;100309.00;;;;10393836;28;20218;-81
2021/07/26 02:37:09;;;;;;;6.53;4.80;;;;;16.60;100320.00;;;;10361763;28;20217;-82
2021/07/26 02:42:11;;;;;;;6.95;4.65;;;;;16.50;100324.00;;;;10393272;28;20187;-82
2021/07/26 02:47:13;;;;;;;10.30;5.93;;;;;16.50;100335.00;;;;10435033;28;20210;-81
2021/07/26 02:52:15;;;;;;;8.73;5.28;;;;;16.40;100335.00;;;;10420708;28;20210;-82
2021/07/26 02:57:16;;;;;;;8.30;6.15;;;;;16.50;100338.00;;;;10377890;28;20206;-82
2021/07/26 03:02:18;;;;;;;6.00;5.40;;;;;16.40;100342.00;;;;10393375;28;20201;-81
2021/07/26 03:07:21;;;;;;;11.77;5.82;;;;;16.40;100337.00;;;;10398353;28;20190;-82
2021/07/26 03:12:23;;;;;;;8.60;6.07;;;;;16.40;100349.00;;;;10394400;28;20206;-81
2021/07/26 03:17:25;;;;;;;8.02;5.95;;;;;16.40;100360.00;;;;10380872;28;20191;-81
2021/07/26 03:22:52;;;;;;;10.88;6.22;;;;;16.30;100347.00;;;;10409951;28;20191;-82
2021/07/26 03:27:54;;;;;;;8.27;5.73;;;;;16.30;100352.00;;;;10408528;28;20175;-82
2021/07/26 03:32:56;;;;;;;11.73;6.87;;;;;16.40;100348.00;;;;10407801;28;20944;-81
2021/07/26 03:37:58;;;;;;;12.97;7.60;;;;;16.40;100367.00;;;;10431081;28;20190;-81
2021/07/26 03:43:02;;;;;;;12.63;6.80;;;;;16.40;100354.00;;;;10409580;28;20199;-81
2021/07/26 03:48:04;;;;;;;15.43;7.27;;;;;16.40;100362.00;;;;10431652;28;20201;-81
2021/07/26 03:53:06;;;;;;;15.57;8.13;;;;;16.40;100362.00;;;;10421384;28;20222;-81
2021/07/26 03:58:08;;;;;;;10.47;8.40;;;;;16.40;100371.00;;;;10415994;28;20256;-81
2021/07/26 04:08:33;;;;;;;14.93;8.37;;;;;16.60;100370.00;;;;10440591;28;20257;-81
2021/07/26 04:13:37;;;;;;;11.93;8.65;;;;;16.80;100370.00;;;;10433145;28;20222;-81
2021/07/26 04:18:42;;;;;;;15.88;8.27;;;;;16.80;100378.00;;;;10399267;28;20198;-81
2021/07/26 04:23:44;;;;;;;11.52;8.38;;;;;16.70;100384.00;;;;10461208;28;20227;-81
2021/07/26 04:28:46;;;;;;;13.57;8.68;;;;;16.70;100386.00;;;;10502165;28;20547;-81
2021/07/26 04:33:49;;;;;;;11.67;8.97;;;;;16.80;100389.00;;;;10506368;28;20277;-81
2021/07/26 04:38:50;;;;;;;18.33;8.85;;;;;16.80;100382.00;;;;10472559;28;20200;-81
2021/07/26 04:43:52;;;;;;;12.15;8.95;;;;;16.90;100377.00;;;;10465322;28;20328;-81
2021/07/26 04:48:54;;;;;;;14.25;7.72;;;;;17.00;100381.00;;;;10464632;28;20215;-81
2021/07/26 04:53:56;;;;;;;11.32;8.50;;;;;17.20;100380.00;;;;10466158;28;20228;-81
2021/07/26 04:58:58;;;;;;;14.35;8.40;;;;;17.30;100389.00;;;;10479791;28;20190;-82
2021/07/26 05:04:00;;;;;;;14.07;8.50;;;;;17.50;100396.00;;;;10437590;28;20213;-82
2021/07/26 05:09:02;;;;;;;14.27;8.68;;;;;17.60;100392.00;;;;10457783;28;20281;-81
2021/07/26 05:14:04;;;;;;;12.95;8.55;;;;;17.80;100399.00;;;;10437421;28;20214;-81
2021/07/26 05:19:06;;;;;;;14.30;8.30;;;;;17.80;100396.00;;;;10454549;28;20650;-81
2021/07/26 05:24:08;;;;;;;9.82;7.50;;;;;18.00;100393.00;;;;10420646;28;20329;-82
2021/07/26 05:29:10;;;;;;;13.43;7.82;;;;;18.40;100409.00;;;;10437389;28;20194;-81
2021/07/26 05:34:12;;;;;;;13.77;7.47;;;;;18.90;100418.00;;;;10445533;28;20305;-82
2021/07/26 05:39:14;;;;;;;8.40;6.72;;;;;19.70;100435.00;;;;10438495;28;20661;-82
2021/07/26 05:44:16;;;;;;;10.25;5.90;;;;;20.20;100438.00;;;;10429250;28;20208;-81
2021/07/26 05:49:18;;;;;;;11.85;5.35;;;;;19.70;100442.00;;;;10446332;28;20477;-81
2021/07/26 05:54:20;;;;;;;7.80;5.00;;;;;19.50;100430.00;;;;10460467;28;20213;-81
2021/07/26 05:59:21;;;;;;;7.32;5.60;;;;;19.50;100431.00;;;;10461221;28;20190;-81
2021/07/26 06:04:24;;;;;;;8.40;4.47;;;;;19.50;100426.00;;;;10458600;28;20197;-81
2021/07/26 06:09:26;;;;;;;13.55;5.13;;;;;19.70;100426.00;;;;10476349;28;20200;-81
2021/07/26 06:14:29;;;;;;;6.75;4.38;;;;;20.10;100421.00;;;;10459225;28;20221;-80
2021/07/26 06:19:31;;;;;;;6.75;4.40;;;;;20.40;100427.00;;;;10490886;28;20886;-81
2021/07/26 06:24:33;;;;;;;7.10;4.68;;;;;20.80;100427.00;;;;10439466;28;20288;-81
2021/07/26 06:29:36;;;;;;;5.00;3.80;;;;;21.30;100437.00;;;;10417709;28;20277;-81
2021/07/26 06:34:38;;;;;;;6.07;4.18;;;;;20.50;100427.00;;;;10432291;28;20309;-83
2021/07/26 06:39:40;;;;;;;8.25;4.45;;;;;20.10;100417.00;;;;10442988;28;20194;-82
2021/07/26 06:44:44;;;;;;;7.85;5.38;;;;;19.60;100416.00;;;;10466395;28;20441;-81
2021/07/26 06:49:46;;;;;;;6.82;6.10;;;;;19.50;100415.00;;;;10461230;28;20193;-82
2021/07/26 06:54:47;;;;;;;10.98;7.40;;;;;20.20;100417.00;;;;10475613;28;20217;-82
2021/07/26 06:59:49;;;;;;;10.48;7.35;;;;;21.40;100438.00;;;;10490784;28;20192;-82
2021/07/26 07:04:51;;;;;;;9.18;7.55;;;;;21.50;100441.00;;;;10453865;28;20552;-82
2021/07/26 07:09:53;;;;;;;11.70;8.63;;;;;21.20;100443.00;;;;10456990;28;20660;-81
2021/07/26 07:14:55;;;;;;;11.48;7.82;;;;;20.80;100436.00;;;;10456150;28;20213;-81
2021/07/26 07:19:57;;;;;;;10.27;8.35;;;;;20.60;100434.00;;;;10457085;28;20198;-82
2021/07/26 07:24:59;;;;;;;13.75;9.40;;;;;20.40;100423.00;;;;10469641;28;20198;-81
2021/07/26 07:30:02;;;;;;;12.05;9.90;;;;;21.00;100432.00;;;;10457872;28;20559;-81
2021/07/26 07:35:04;;;;;;;14.75;9.77;;;;;21.10;100445.00;;;;10441160;28;20235;-81
2021/07/26 07:40:07;;;;;;;11.15;9.38;;;;;20.50;100444.00;;;;10451013;28;20201;-81
2021/07/26 07:45:09;;;;;;;14.30;10.40;;;;;19.90;100435.00;;;;10424251;28;20205;-82
2021/07/26 07:50:14;;;;;;;14.45;10.52;;;;;20.10;100427.00;;;;10400715;28;20256;-82
2021/07/26 07:55:16;;;;;;;15.95;11.55;;;;;21.00;100446.00;;;;10450088;28;20229;-82
2021/07/26 08:00:18;;;;;;;14.82;11.77;;;;;21.30;100458.00;;;;10418388;28;20194;-82
2021/07/26 08:05:20;;;;;;;17.02;10.70;;;;;21.80;100467.00;;;;10495397;28;20188;-81
2021/07/26 08:10:23;;;;;;;17.45;12.13;;;;;22.10;100470.00;;;;10473625;28;20190;-81
2021/07/26 08:15:25;;;;;;;18.65;11.18;;;;;21.50;100476.00;;;;10462525;28;20215;-81
2021/07/26 08:20:27;;;;;;;18.90;11.82;;;;;23.80;100469.00;;;;10478568;28;20292;-81
2021/07/26 08:25:29;;;;;;;16.25;11.55;;;;;24.90;100485.00;;;;10454507;28;20261;-81
2021/07/26 08:30:33;;;;;;;15.95;11.13;;;;;25.00;100489.00;;;;10478931;28;20189;-82
2021/07/26 08:35:36;;;;;;;19.55;12.65;;;;;23.90;100499.00;;;;10443036;28;20217;-82
2021/07/26 08:40:38;;;;;;;18.70;12.70;;;;;23.70;100493.00;;;;10469786;28;20190;-81
2021/07/26 08:45:40;;;;;;;15.02;10.95;;;;;23.90;100500.00;;;;10461993;28;20281;-82
2021/07/26 08:50:42;;;;;;;11.52;10.27;;;;;24.10;100504.00;;;;10419459;28;20194;-81
2021/07/26 08:55:44;;;;;;;15.25;9.15;;;;;24.60;100508.00;;;;10418543;28;20223;-81
2021/07/26 09:00:46;;;;;;;17.88;9.38;;;;;25.10;100500.00;;;;10436220;28;20194;-81
2021/07/26 09:05:48;;;;;;;13.35;8.27;;;;;26.40;100509.00;;;;10450524;28;20187;-82
2021/07/26 09:10:50;;;;;;;9.90;8.30;;;;;27.60;100513.00;;;;10460323;28;20190;-81
2021/07/26 09:15:52;;;;;;;8.13;7.10;;;;;26.90;100514.00;;;;10416091;28;20218;-81
2021/07/26 09:20:57;;;;;;;12.23;7.65;;;;;26.60;100507.00;;;;10434035;28;20190;-81
2021/07/26 09:26:00;;;;;;;8.23;7.10;;;;;26.00;100517.00;;;;10416631;28;20190;-81
2021/07/26 09:31:04;;;;;;;12.15;6.57;;;;;25.50;100514.00;;;;10449339;28;20182;-81
2021/07/26 09:36:18;;;;;;;8.65;6.25;;;;;25.80;100505.00;;;;10401051;28;20218;-81
2021/07/26 09:41:43;;;;;;;10.18;6.97;;;;;26.70;100518.00;;;;10439987;28;20190;-82
2021/07/26 09:46:45;;;;;;;9.73;6.32;;;;;26.60;100506.00;;;;10455553;28;20189;-81
2021/07/26 09:52:04;;;;;;;7.90;5.95;;;;;27.30;100498.00;;;;10442173;28;20198;-81
2021/07/26 09:57:19;;;;;;;9.13;6.25;;;;;27.40;100502.00;;;;10451023;28;20277;-81
2021/07/26 10:02:25;;;;;;;8.48;6.53;;;;;27.50;100506.00;;;;10431326;28;20199;-81
2021/07/26 10:07:28;;;;;;;8.95;7.05;;;;;27.50;100509.00;;;;10415926;28;20198;-82
2021/07/26 10:12:30;;;;;;;9.60;6.28;;;;;27.10;100511.00;;;;10415086;28;20213;-81
2021/07/26 10:17:32;;;;;;;6.18;5.57;;;;;27.20;100511.00;;;;10431405;28;20204;-81
2021/07/26 10:22:35;;;;;;;6.20;5.20;;;;;28.00;100512.00;;;;10414930;28;20593;-81
2021/07/26 10:27:38;;;;;;;9.50;5.13;;;;;28.60;100511.00;;;;10444938;28;20198;-82
2021/07/26 10:32:40;;;;;;;6.03;5.13;;;;;28.80;100509.00;;;;10446150;28;20218;-81
2021/07/26 10:37:47;;;;;;;6.53;5.00;;;;;29.20;100521.00;;;;10430710;28;20194;-82
2021/07/26 10:42:50;;;;;;;6.82;5.13;;;;;27.80;100522.00;;;;10432308;28;20189;-81
2021/07/26 10:48:30;;;;;;;7.13;5.35;;;;;26.50;100520.00;;;;10462300;28;20209;-82
2021/07/26 10:53:32;;;;;;;6.13;4.90;;;;;25.60;100513.00;;;;10429907;28;20648;-81
2021/07/26 10:58:37;;;;;;;5.97;4.35;;;;;26.80;100517.00;;;;10494342;28;20197;-81
2021/07/26 11:03:43;;;;;;;6.00;4.85;;;;;29.40;100513.00;;;;10447580;28;20641;-82
2021/07/26 11:08:45;;;;;;;7.97;4.28;;;;;29.90;100522.00;;;;10448861;28;20221;-81
2021/07/26 11:13:47;;;;;;;5.20;4.45;;;;;30.10;100510.00;;;;10429278;28;20226;-81
2021/07/26 11:18:50;;;;;;;6.68;4.28;;;;;29.30;100518.00;;;;10413572;28;20257;-82
2021/07/26 11:23:55;;;;;;;4.95;3.97;;;;;27.60;100521.00;;;;10463678;28;20194;-81
2021/07/26 11:29:02;;;;;;;4.72;4.13;;;;;26.60;100515.00;;;;10412564;28;20194;-82
2021/07/26 11:34:14;;;;;;;4.93;4.43;;;;;28.00;100518.00;;;;10461712;28;20229;-81
2021/07/26 11:39:16;;;;;;;5.65;4.13;;;;;30.10;100509.00;;;;10397784;28;20194;-81
2021/07/26 11:44:27;;;;;;;4.60;4.07;;;;;31.10;100519.00;;;;10470688;28;20198;-82
2021/07/26 11:49:29;;;;;;;5.10;4.20;;;;;32.00;100500.00;;;;10436213;28;20190;-82
2021/07/26 11:54:31;;;;;;;5.80;4.15;;;;;31.30;100498.00;;;;10441343;28;20222;-82
2021/07/26 11:59:34;;;;;;;6.80;3.92;;;;;32.00;100502.00;;;;10419376;28;20210;-82
2021/07/26 12:04:37;;;;;;;3.45;3.05;;;;;31.30;100496.00;;;;10464077;28;20268;-82
2021/07/26 12:09:50;;;;;;;3.90;3.50;;;;;30.00;100492.00;;;;10473913;28;20194;-82
2021/07/26 12:14:52;;;;;;;4.88;3.72;;;;;29.70;100489.00;;;;10476722;28;20209;-82
2021/07/26 12:20:04;;;;;;;19.45;4.72;;;;;29.30;100495.00;;;;10444189;28;20212;-82
2021/07/26 12:25:18;;;;;;;4.18;3.47;;;;;29.40;100500.00;;;;10434850;28;20194;-82
2021/07/26 12:30:20;;;;;;;6.20;4.25;;;;;28.10;100505.00;;;;10434696;28;20276;-82
2021/07/26 12:35:24;;;;;;;7.07;3.70;;;;;25.30;100524.00;;;;10447406;28;20222;-83
2021/07/26 12:40:26;;;;;;;5.15;4.53;;;;;23.80;100534.00;;;;10455110;28;20638;-83
2021/07/26 12:45:29;;;;;;;6.25;5.50;;;;;23.50;100542.00;;;;10420506;28;20285;-82
2021/07/26 12:50:31;;;;;;;12.88;6.07;;;;;23.30;100554.00;;;;10458127;28;20198;-83
2021/07/26 12:55:33;;;;;;;7.78;6.32;;;;;23.40;100547.00;;;;10460458;28;20205;-82
2021/07/26 13:00:37;;;;;;;9.30;6.75;;;;;23.30;100550.00;;;;10476387;28;20194;-82
2021/07/26 13:05:40;;;;;;;9.65;6.32;;;;;23.20;100537.00;;;;10437782;28;20685;-82
2021/07/26 13:10:49;;;;;;;10.77;6.00;;;;;23.20;100541.00;;;;10433493;28;20194;-82
2021/07/26 13:15:53;;;;;;;10.93;7.38;;;;;23.20;100549.00;;;;10434043;28;20435;-82
2021/07/26 13:20:55;;;;;;;7.70;6.80;;;;;23.60;100542.00;;;;10434021;28;20240;-84
2021/07/26 13:25:57;;;;;;;9.23;7.43;;;;;24.20;100544.00;;;;10424418;28;20771;-83
2021/07/26 13:31:00;;;;;;;7.43;6.38;;;;;24.50;100550.00;;;;10433554;28;20697;-83
2021/07/26 13:36:05;;;;;;;10.82;8.75;;;;;24.80;100548.00;;;;10452307;28;20220;-84
2021/07/26 13:41:07;;;;;;;10.38;8.70;;;;;24.20;100551.00;;;;10457399;28;20189;-84
2021/07/26 13:46:11;;;;;;;13.00;8.85;;;;;24.40;100552.00;;;;10450150;28;20566;-83
2021/07/26 13:51:13;;;;;;;12.82;8.32;;;;;24.50;100546.00;;;;10431914;28;20199;-83
2021/07/26 13:56:15;;;;;;;16.45;6.55;;;;;24.80;100548.00;;;;10480487;28;20228;-84
2021/07/26 14:01:17;;;;;;;12.15;7.43;;;;;25.50;100543.00;;;;10438945;28;20194;-83
2021/07/26 14:06:19;;;;;;;8.90;6.40;;;;;26.30;100540.00;;;;10452511;28;20189;-83
2021/07/26 14:11:21;;;;;;;7.00;5.70;;;;;26.30;100537.00;;;;10432236;28;20199;-83
2021/07/26 14:16:23;;;;;;;8.77;7.38;;;;;27.60;100530.00;;;;10414734;28;20222;-83
2021/07/26 14:21:25;;;;;;;7.55;6.85;;;;;27.70;100519.00;;;;10414958;28;20230;-83
2021/07/26 14:26:27;;;;;;;7.85;6.85;;;;;32.10;100516.00;;;;10430909;28;20842;-82
2021/07/26 14:31:29;;;;;;;4.25;3.70;;;;;35.10;100526.00;;;;10456261;28;20207;-83
2021/07/26 14:36:32;;;;;;;10.10;1.85;;;;;34.50;100530.00;;;;10444294;28;20210;-83
2021/07/26 14:41:34;;;;;;;3.55;2.50;;;;;30.20;100533.00;;;;10450660;28;20556;-82
2021/07/26 14:46:36;;;;;;;2.03;1.75;;;;;28.10;100528.00;;;;10471474;28;20186;-83
2021/07/26 14:51:39;;;;;;;16.48;3.15;;;;;32.50;100518.00;;;;10456198;28;20217;-82
2021/07/26 14:56:41;;;;;;;2.28;1.80;;;;;34.40;100529.00;;;;10434475;28;20312;-83
2021/07/26 15:01:43;;;;;;;2.35;1.90;;;;;31.40;100540.00;;;;10466024;28;20190;-83
2021/07/26 15:06:45;;;;;;;2.03;1.83;;;;;28.20;100533.00;;;;10461432;28;20197;-83
2021/07/26 15:11:47;;;;;;;2.92;1.77;;;;;30.60;100528.00;;;;10467812;28;20201;-82
2021/07/26 15:16:49;;;;;;;1.75;1.65;;;;;31.10;100532.00;;;;10441194;28;20220;-82
2021/07/26 15:21:52;;;;;;;1.52;1.40;;;;;31.30;100520.00;;;;10448901;28;20254;-83
2021/07/26 15:26:54;;;;;;;1.60;1.23;;;;;33.70;100523.00;;;;10474995;28;20216;-83
2021/07/26 15:31:59;;;;;;;3.72;1.80;;;;;30.20;100525.00;;;;10463235;28;20206;-83
2021/07/26 15:37:02;;;;;;;3.20;1.63;;;;;30.50;100519.00;;;;10455684;28;20214;-82
2021/07/26 15:42:04;;;;;;;2.10;1.90;;;;;31.90;100502.00;;;;10471418;28;20194;-82
2021/07/26 15:47:06;;;;;;;3.72;2.08;;;;;36.00;100509.00;;;;10431289;28;20259;-82
2021/07/26 15:52:08;;;;;;;3.22;1.95;;;;;33.80;100523.00;;;;10454492;28;20196;-83
2021/07/26 15:57:10;;;;;;;2.33;2.08;;;;;29.80;100512.00;;;;10425919;28;20218;-83
2021/07/26 16:02:13;;;;;;;2.22;2.03;;;;;28.20;100509.00;;;;10413315;28;20198;-83
2021/07/26 16:07:15;;;;;;;2.30;2.10;;;;;27.50;100507.00;;;;10435535;28;20192;-83
2021/07/26 16:12:18;;;;;;;2.88;2.58;;;;;27.10;100511.00;;;;10485448;28;20704;-83
2021/07/26 16:17:22;;;;;;;2.45;2.25;;;;;26.00;100497.00;;;;10412645;28;20213;-83
2021/07/26 16:22:24;;;;;;;2.45;2.28;;;;;25.80;100507.00;;;;10418555;28;20205;-83
2021/07/26 16:27:27;;;;;;;2.85;2.50;;;;;25.50;100504.00;;;;10443549;28;20197;-82
2021/07/26 16:32:29;;;;;;;3.83;1.80;;;;;25.30;100492.00;;;;10452896;28;20214;-84
2021/07/26 16:37:31;;;;;;;2.10;1.90;;;;;25.50;100505.00;;;;10437023;28;20222;-84
2021/07/26 16:42:34;;;;;;;3.88;2.40;;;;;25.00;100510.00;;;;10421720;28;20205;-83
2021/07/26 16:47:38;;;;;;;4.28;2.50;;;;;24.80;100515.00;;;;10421489;28;20233;-83
2021/07/26 16:52:44;;;;;;;2.35;2.10;;;;;24.50;100500.00;;;;10474461;28;20189;-83
2021/07/26 16:57:45;;;;;;;2.70;2.15;;;;;24.10;100507.00;;;;10422901;28;20621;-82
2021/07/26 17:02:47;;;;;;;2.47;2.28;;;;;23.60;100525.00;;;;10470181;28;20645;-82
2021/07/26 17:07:49;;;;;;;4.18;2.40;;;;;23.10;100537.00;;;;10433683;28;20193;-82
2021/07/26 17:12:51;;;;;;;3.85;2.85;;;;;22.80;100547.00;;;;10456596;28;20201;-82
2021/07/26 17:17:53;;;;;;;2.85;2.60;;;;;22.50;100549.00;;;;10448881;28;20214;-82
2021/07/26 17:22:55;;;;;;;3.95;2.47;;;;;22.20;100561.00;;;;10454045;28;20206;-82
2021/07/26 17:27:58;;;;;;;3.63;2.75;;;;;22.00;100547.00;;;;10448109;28;20190;-83
2021/07/26 17:33:03;;;;;;;3.92;3.10;;;;;21.70;100554.00;;;;10449917;28;20231;-82
2021/07/26 17:38:07;;;;;;;4.18;2.90;;;;;21.50;100561.00;;;;10433892;28;20186;-83
2021/07/26 17:43:09;;;;;;;3.65;3.25;;;;;21.30;100561.00;;;;10464501;28;20209;-82
2021/07/26 17:48:11;;;;;;;3.67;2.92;;;;;21.30;100562.00;;;;10417327;28;20182;-82
2021/07/26 17:53:13;;;;;;;4.43;4.00;;;;;21.20;100572.00;;;;10453925;28;20280;-82
2021/07/26 17:58:15;;;;;;;5.20;4.68;;;;;21.30;100572.00;;;;10437307;28;20651;-82
2021/07/26 18:03:19;;;;;;;4.82;4.40;;;;;21.40;100587.00;;;;10441152;28;20196;-82
2021/07/26 18:08:21;;;;;;;4.53;4.13;;;;;21.50;100586.00;;;;10430773;28;20240;-82
2021/07/26 18:13:23;;;;;;;5.15;4.57;;;;;21.10;100595.00;;;;10420201;28;20202;-83
2021/07/26 18:18:26;;;;;;;9.23;5.32;;;;;20.50;100589.00;;;;10429984;28;20233;-83
2021/07/26 18:23:28;;;;;;;7.25;5.70;;;;;20.10;100592.00;;;;10401611;28;20684;-84
2021/07/26 18:28:30;;;;;;;6.45;5.32;;;;;19.90;100590.00;;;;10432366;28;20205;-84
2021/07/26 18:33:32;;;;;;;8.73;5.78;;;;;20.10;100596.00;;;;10452139;28;20220;-84
2021/07/26 18:38:34;;;;;;;7.60;6.20;;;;;20.10;100594.00;;;;10476531;28;20200;-84
2021/07/26 18:43:36;;;;;;;7.75;6.32;;;;;20.00;100601.00;;;;10478624;28;20243;-85
2021/07/26 18:48:44;;;;;;;8.20;7.40;;;;;19.90;100601.00;;;;10476006;28;20625;-85
2021/07/26 18:53:46;;;;;;;8.55;7.18;;;;;20.00;100610.00;;;;10455134;28;20259;-84
2021/07/26 18:58:48;;;;;;;8.65;7.72;;;;;19.90;100608.00;;;;10433711;28;20197;-84
2021/07/26 19:03:50;;;;;;;9.35;8.00;;;;;19.70;100614.00;;;;10414700;28;20182;-84
2021/07/26 19:08:52;;;;;;;9.40;8.40;;;;;19.50;100621.00;;;;10414882;28;20194;-83
2021/07/26 19:13:54;;;;;;;10.18;7.93;;;;;19.30;100615.00;;;;10447357;28;20243;-82
2021/07/26 19:18:56;;;;;;;9.70;8.48;;;;;19.10;100611.00;;;;10430665;28;20194;-83
2021/07/26 19:23:58;;;;;;;11.07;9.35;;;;;18.90;100612.00;;;;10430971;28;20285;-83
2021/07/26 19:29:01;;;;;;;10.63;9.52;;;;;18.80;100616.00;;;;10461171;28;20231;-83
2021/07/26 19:34:03;;;;;;;13.02;10.50;;;;;18.70;100611.00;;;;10472705;28;20224;-83
2021/07/26 19:39:05;;;;;;;13.90;10.38;;;;;18.60;100616.00;;;;10456173;28;20194;-83
2021/07/26 19:44:07;;;;;;;14.25;10.88;;;;;18.50;100630.00;;;;10456775;28;20197;-83
2021/07/26 19:49:09;;;;;;;12.80;11.20;;;;;18.40;100623.00;;;;10472340;28;20207;-83
2021/07/26 19:54:11;;;;;;;13.35;11.63;;;;;18.30;100631.00;;;;10423812;28;20210;-83
2021/07/26 19:59:13;;;;;;;14.30;11.98;;;;;18.30;100651.00;;;;10422246;28;20194;-83
2021/07/26 20:04:15;;;;;;;14.88;12.60;;;;;18.20;100653.00;;;;10440719;28;20182;-84
2021/07/26 20:09:18;;;;;;;14.02;11.95;;;;;18.20;100652.00;;;;10459037;28;20202;-84
2021/07/26 20:14:19;;;;;;;15.32;13.32;;;;;18.20;100662.00;;;;10466562;28;20214;-84
2021/07/26 20:19:21;;;;;;;16.65;12.55;;;;;18.10;100663.00;;;;10475912;28;20198;-83
2021/07/26 20:24:23;;;;;;;16.58;13.30;;;;;18.10;100678.00;;;;10479328;28;20668;-84
2021/07/26 20:29:25;;;;;;;15.98;13.15;;;;;18.10;100682.00;;;;10460346;28;20193;-83
2021/07/26 20:34:28;;;;;;;16.15;14.07;;;;;18.10;100688.00;;;;10464037;28;20198;-84
2021/07/26 20:39:33;;;;;;;15.00;13.10;;;;;18.10;100698.00;;;;10467502;28;20198;-84
2021/07/26 20:44:35;;;;;;;16.80;12.90;;;;;18.00;100703.00;;;;10459777;28;20209;-83
2021/07/26 20:49:37;;;;;;;16.58;12.52;;;;;18.00;100701.00;;;;10450731;28;20221;-83
2021/07/26 20:54:39;;;;;;;15.43;12.80;;;;;18.00;100702.00;;;;10451724;28;20213;-82
2021/07/26 20:59:41;;;;;;;12.80;11.20;;;;;18.10;100718.00;;;;10498413;28;20281;-83
2021/07/26 21:04:43;;;;;;;16.55;12.80;;;;;18.00;100702.00;;;;10480883;28;20257;-83
2021/07/26 21:09:45;;;;;;;15.18;12.10;;;;;18.00;100708.00;;;;10491507;28;20202;-83
2021/07/26 21:14:53;;;;;;;15.80;12.07;;;;;17.90;100716.00;;;;10457277;28;20826;-84
2021/07/26 21:19:57;;;;;;;13.98;12.20;;;;;17.80;100712.00;;;;10448122;28;20233;-83
2021/07/26 21:24:59;;;;;;;18.05;13.18;;;;;17.70;100704.00;;;;10451172;28;20204;-83
2021/07/26 21:30:06;;;;;;;15.52;12.13;;;;;17.50;100701.00;;;;10439866;28;20228;-83
2021/07/26 21:35:09;;;;;;;17.02;12.38;;;;;17.40;100708.00;;;;10483922;28;20684;-83
2021/07/26 21:40:13;;;;;;;18.75;13.15;;;;;17.40;100709.00;;;;10507013;28;20235;-83
2021/07/26 21:45:15;;;;;;;18.38;14.45;;;;;17.30;100712.00;;;;10502270;28;20236;-83
2021/07/26 21:50:21;;;;;;;20.63;15.30;;;;;17.20;100721.00;;;;10456121;28;20249;-82
2021/07/26 21:55:23;;;;;;;19.10;16.00;;;;;17.20;100721.00;;;;10466477;28;20282;-83
2021/07/26 22:00:25;;;;;;;23.75;16.25;;;;;17.10;100722.00;;;;10452291;28;20202;-82
2021/07/26 22:05:27;;;;;;;21.67;16.65;;;;;17.10;100719.00;;;;10484219;28;20186;-82
2021/07/26 22:10:29;;;;;;;23.15;16.98;;;;;17.10;100724.00;;;;10484326;28;20182;-83
2021/07/26 22:15:35;;;;;;;20.27;16.00;;;;;17.10;100733.00;;;;10457870;28;20215;-82
2021/07/26 22:20:43;;;;;;;19.48;16.17;;;;;17.00;100735.00;;;;10450725;28;20194;-83
2021/07/26 22:25:45;;;;;;;19.45;14.43;;;;;17.10;100733.00;;;;10486938;28;20186;-83
2021/07/26 22:30:47;;;;;;;17.27;12.95;;;;;17.10;100737.00;;;;10475430;28;20209;-83
2021/07/26 22:35:49;;;;;;;16.60;12.07;;;;;17.20;100739.00;;;;10479497;28;20206;-83
2021/07/26 22:40:51;;;;;;;25.85;14.32;;;;;17.30;100742.00;;;;10493149;28;20200;-82
2021/07/26 22:45:53;;;;;;;22.92;14.90;;;;;17.40;100744.00;;;;10442714;28;20218;-82
2021/07/26 22:51:01;;;;;;;21.75;14.43;;;;;17.50;100748.00;;;;10407109;28;20194;-82
2021/07/26 22:56:03;;;;;;;27.77;16.05;;;;;17.60;100747.00;;;;10401659;28;20268;-82
2021/07/26 23:01:04;;;;;;;23.13;17.23;;;;;17.70;100750.00;;;;10431770;28;20199;-82
2021/07/26 23:06:07;;;;;;;22.98;16.48;;;;;17.70;100748.00;;;;10396050;28;20190;-81
2021/07/26 23:11:13;;;;;;;20.83;15.45;;;;;17.80;100757.00;;;;10451940;28;20186;-81
2021/07/26 23:16:15;;;;;;;22.13;15.18;;;;;17.80;100739.00;;;;10416449;28;20209;-82
2021/07/26 23:21:17;;;;;;;24.20;16.02;;;;;17.80;100736.00;;;;10404774;28;20194;-82
2021/07/26 23:26:18;;;;;;;20.98;14.68;;;;;17.80;100737.00;;;;10418214;28;20199;-83
2021/07/26 23:31:20;;;;;;;22.70;16.10;;;;;17.80;100723.00;;;;10414171;28;20195;-83
2021/07/26 23:36:22;;;;;;;27.83;15.27;;;;;17.80;100723.00;;;;10424100;28;20197;-82
2021/07/26 23:41:25;;;;;;;19.67;15.20;;;;;17.80;100715.00;;;;10405919;28;20221;-82
2021/07/26 23:46:27;;;;;;;22.30;15.55;;;;;17.80;100719.00;;;;10450929;28;20206;-82
2021/07/26 23:51:29;;;;;;;21.00;15.13;;;;;17.80;100714.00;;;;10470269;28;20225;-82
2021/07/26 23:56:32;;;;;;;25.77;17.42;;;;;17.80;100713.00;;;;10472432;28;20198;-82
